Time;durP1;ratioP1;P1;durP2;ratioP2;P2;SDS_P1;SDS_P2;PMS_P1;PMS_P2;Temp;Humidity;BMP_temperature;BMP_pressure;BME280_temperature;BME280_humidity;BME280_pressure;Samples;Min_cycle;Max_cycle;Signal;HPM_P1;HPM_P2
2021/12/17 00:02:23;;;;;;;22.10;11.53;;;7.70;99.90;;;;;;5053985;28;20466;-74
2021/12/17 00:04:53;;;;;;;21.40;10.47;;;7.70;99.90;;;;;;5055022;28;20555;-74
2021/12/17 00:07:22;;;;;;;22.23;10.97;;;7.70;99.90;;;;;;5054714;28;20202;-74
2021/12/17 00:09:50;;;;;;;22.33;10.83;;;7.60;99.90;;;;;;5055141;28;20215;-74
2021/12/17 00:12:22;;;;;;;23.00;11.47;;;7.60;99.90;;;;;;5054568;28;20709;-74
2021/12/17 00:14:50;;;;;;;20.27;9.97;;;7.60;99.90;;;;;;5054917;28;20245;-74
2021/12/17 00:17:23;;;;;;;21.93;10.80;;;7.50;99.90;;;;;;5063124;28;20208;-74
2021/12/17 00:20:09;;;;;;;20.53;10.80;;;7.50;99.90;;;;;;5064232;28;20649;-74
2021/12/17 00:50:28;;;;;;;21.90;11.17;;;7.70;99.90;;;;;;5040811;28;20194;-68
2021/12/17 00:52:55;;;;;;;21.07;10.07;;;7.80;99.90;;;;;;5063217;28;20230;-68
2021/12/17 00:55:21;;;;;;;19.70;10.17;;;7.70;99.90;;;;;;5054514;28;20211;-68
2021/12/17 00:57:48;;;;;;;20.70;10.67;;;7.60;99.90;;;;;;5064407;28;20627;-68
2021/12/17 01:00:22;;;;;;;21.13;11.40;;;7.70;99.90;;;;;;5062770;28;20199;-68
2021/12/17 01:02:50;;;;;;;18.20;8.97;;;7.60;99.90;;;;;;5055145;28;20199;-68
2021/12/17 01:05:19;;;;;;;18.90;9.80;;;7.60;99.90;;;;;;5054694;28;20207;-68
2021/12/17 01:07:49;;;;;;;20.67;10.57;;;7.60;99.90;;;;;;5072629;28;20202;-68
2021/12/17 01:10:20;;;;;;;21.93;10.73;;;7.60;99.90;;;;;;5068479;28;20195;-68
2021/12/17 01:12:47;;;;;;;19.67;10.30;;;7.60;99.90;;;;;;5053833;28;20219;-68
2021/12/17 01:15:19;;;;;;;20.30;10.53;;;7.70;99.90;;;;;;5066378;28;20198;-68
2021/12/17 01:17:48;;;;;;;18.63;9.93;;;7.70;99.90;;;;;;5072830;28;20198;-68
2021/12/17 01:20:35;;;;;;;20.03;9.87;;;7.60;99.90;;;;;;5053968;28;20199;-68
2021/12/17 01:23:16;;;;;;;21.23;10.53;;;7.60;99.90;;;;;;5065110;28;20268;-68
2021/12/17 01:35:20;;;;;;;20.30;10.67;;;7.60;99.90;;;;;;5059688;28;20286;-68
2021/12/17 01:37:18;;;;;;;21.87;10.90;;;7.70;99.90;;;;;;5064812;28;20197;-68
2021/12/17 01:42:25;;;;;;;22.03;11.23;;;7.80;99.90;;;;;;5033484;28;20200;-68
2021/12/17 01:44:52;;;;;;;21.97;10.43;;;7.80;99.90;;;;;;5033879;28;20200;-68
2021/12/17 01:47:21;;;;;;;22.70;11.90;;;7.80;99.90;;;;;;5033729;28;20204;-68
2021/12/17 02:00:52;;;;;;;22.27;11.10;;;7.80;99.90;;;;;;5049206;28;20242;-68
2021/12/17 02:03:20;;;;;;;20.00;11.27;;;7.80;99.90;;;;;;5044239;28;20568;-68
2021/12/17 02:05:47;;;;;;;22.20;11.83;;;7.80;99.90;;;;;;5053072;28;20205;-68
2021/12/17 02:08:14;;;;;;;20.13;10.90;;;7.80;99.90;;;;;;5053010;28;20573;-69
2021/12/17 02:32:46;;;;;;;24.33;12.70;;;8.00;99.90;;;;;;5052495;28;20288;-68
2021/12/17 02:38:06;;;;;;;25.63;13.20;;;8.00;99.90;;;;;;5058723;28;20217;-68
2021/12/17 02:46:02;;;;;;;22.20;11.77;;;8.10;99.90;;;;;;5042950;28;20214;-68
2021/12/17 02:48:31;;;;;;;24.23;12.07;;;8.00;99.90;;;;;;5053450;28;20218;-68
2021/12/17 02:51:00;;;;;;;21.80;11.07;;;8.00;99.90;;;;;;5051872;28;20204;-68
2021/12/17 02:53:30;;;;;;;22.90;11.60;;;8.00;99.90;;;;;;5062861;28;20216;-68
2021/12/17 02:56:00;;;;;;;25.00;12.20;;;8.00;99.90;;;;;;5059821;28;20565;-68
2021/12/17 02:58:29;;;;;;;25.97;13.50;;;8.00;99.90;;;;;;5052131;28;20207;-68
2021/12/17 03:00:57;;;;;;;24.90;13.63;;;7.90;99.90;;;;;;5052134;28;20201;-68
2021/12/17 03:03:27;;;;;;;26.20;13.97;;;7.90;99.90;;;;;;5049933;28;20630;-68
2021/12/17 03:05:54;;;;;;;27.73;13.73;;;8.00;99.90;;;;;;5052206;28;20302;-68
2021/12/17 03:08:21;;;;;;;26.43;14.47;;;7.90;99.90;;;;;;5052159;28;20574;-68
2021/12/17 03:10:51;;;;;;;26.87;14.33;;;7.90;99.90;;;;;;5051544;28;20207;-68
2021/12/17 03:13:21;;;;;;;24.80;13.27;;;7.90;99.90;;;;;;5051895;28;20480;-68
2021/12/17 03:15:52;;;;;;;25.70;13.57;;;7.90;99.90;;;;;;5051710;28;20242;-68
2021/12/17 03:23:50;;;;;;;25.50;12.90;;;8.10;99.90;;;;;;5051962;28;20759;-68
2021/12/17 03:26:19;;;;;;;23.73;12.23;;;8.10;99.90;;;;;;5051868;28;20211;-68
2021/12/17 03:28:49;;;;;;;25.87;13.07;;;8.20;99.90;;;;;;5051264;28;20211;-68
2021/12/17 03:31:17;;;;;;;24.97;13.30;;;8.20;99.90;;;;;;5051851;28;20565;-68
2021/12/17 03:33:46;;;;;;;23.60;13.03;;;8.20;99.90;;;;;;5052026;28;20566;-68
2021/12/17 03:36:16;;;;;;;23.57;12.60;;;8.20;99.90;;;;;;5050405;28;20315;-68
2021/12/17 03:38:43;;;;;;;28.53;14.60;;;8.30;99.90;;;;;;5051413;28;20566;-68
2021/12/17 03:41:17;;;;;;;26.47;13.73;;;8.20;99.90;;;;;;5051685;28;20203;-68
2021/12/17 03:43:46;;;;;;;50.43;33.03;;;8.20;99.90;;;;;;5051623;28;20301;-69
2021/12/17 03:46:13;;;;;;;27.50;13.87;;;8.20;99.90;;;;;;5051327;28;20217;-68
2021/12/17 03:48:41;;;;;;;23.97;12.57;;;8.20;99.90;;;;;;5051316;28;20544;-68
2021/12/17 03:51:13;;;;;;;27.70;14.17;;;8.20;99.90;;;;;;5051679;28;20230;-68
2021/12/17 03:53:41;;;;;;;23.07;12.07;;;8.10;99.90;;;;;;5050617;28;20313;-68
2021/12/17 03:56:09;;;;;;;25.47;13.23;;;8.10;99.90;;;;;;5051892;28;20211;-69
2021/12/17 03:58:36;;;;;;;22.90;13.03;;;8.10;99.90;;;;;;5052193;28;20645;-68
2021/12/17 04:01:05;;;;;;;27.30;13.33;;;8.10;99.90;;;;;;5038832;28;20210;-68
2021/12/17 04:03:32;;;;;;;23.97;12.10;;;8.10;99.90;;;;;;5040676;28;20305;-68
2021/12/17 04:05:59;;;;;;;21.37;12.53;;;8.10;99.90;;;;;;5063679;28;20199;-68
2021/12/17 04:08:26;;;;;;;24.60;12.33;;;8.10;99.90;;;;;;5062732;28;20653;-77
2021/12/17 04:11:01;;;;;;;25.97;12.20;;;8.10;99.90;;;;;;5057645;28;20205;-77
2021/12/17 04:13:31;;;;;;;29.17;14.80;;;8.10;99.90;;;;;;5038825;28;20250;-77
2021/12/17 04:16:01;;;;;;;26.87;12.93;;;8.10;99.90;;;;;;5055203;28;20203;-77
2021/12/17 04:18:30;;;;;;;25.07;13.37;;;8.00;99.90;;;;;;5053782;28;20218;-77
2021/12/17 04:20:59;;;;;;;28.63;16.07;;;8.00;99.90;;;;;;5054540;28;20211;-77
2021/12/17 04:23:26;;;;;;;27.63;14.93;;;8.10;99.90;;;;;;5054429;28;20223;-77
2021/12/17 04:25:54;;;;;;;26.93;15.23;;;8.00;99.90;;;;;;5054212;28;20210;-77
2021/12/17 04:28:21;;;;;;;29.47;15.50;;;8.00;99.90;;;;;;5055194;28;20210;-77
2021/12/17 04:30:49;;;;;;;29.47;14.53;;;8.10;99.90;;;;;;5054778;28;20203;-77
2021/12/17 04:33:16;;;;;;;28.13;13.97;;;8.00;99.90;;;;;;5053160;28;20238;-77
2021/12/17 04:35:44;;;;;;;28.90;14.43;;;8.10;99.90;;;;;;5055029;28;20199;-77
2021/12/17 04:38:13;;;;;;;27.47;14.80;;;8.00;99.90;;;;;;5055057;28;20675;-77
2021/12/17 04:40:43;;;;;;;31.83;15.83;;;8.00;99.90;;;;;;5054685;28;20213;-77
2021/12/17 04:43:18;;;;;;;27.47;14.47;;;8.00;99.90;;;;;;5054020;28;20207;-77
2021/12/17 04:45:53;;;;;;;27.03;14.60;;;8.00;99.90;;;;;;5054307;28;20214;-77
2021/12/17 04:59:20;;;;;;;27.87;13.63;;;7.90;99.90;;;;;;5053840;28;20245;-68
2021/12/17 05:01:48;;;;;;;29.73;14.83;;;7.90;99.90;;;;;;5053448;28;20206;-67
2021/12/17 05:04:14;;;;;;;28.83;13.97;;;7.90;99.90;;;;;;5053681;28;20260;-68
2021/12/17 05:06:44;;;;;;;27.73;14.80;;;7.90;99.90;;;;;;5053074;28;20203;-68
2021/12/17 05:09:21;;;;;;;32.47;15.33;;;7.90;99.90;;;;;;5054177;28;20202;-68
2021/12/17 05:19:58;;;;;;;32.27;15.37;;;7.90;99.90;;;;;;5053808;28;20230;-68
2021/12/17 05:22:28;;;;;;;29.27;14.60;;;8.00;99.90;;;;;;5053022;28;20206;-68
2021/12/17 05:24:55;;;;;;;30.80;15.10;;;8.00;99.90;;;;;;5053786;28;20653;-68
2021/12/17 05:27:22;;;;;;;28.47;14.30;;;8.00;99.90;;;;;;5052574;28;20207;-68
2021/12/17 05:29:50;;;;;;;25.57;14.47;;;8.00;99.90;;;;;;5053331;28;20228;-68
2021/12/17 05:32:17;;;;;;;29.83;15.13;;;8.00;99.90;;;;;;5052957;28;20218;-68
2021/12/17 05:34:44;;;;;;;31.87;14.97;;;7.90;99.90;;;;;;5054588;28;20222;-68
2021/12/17 05:37:11;;;;;;;28.57;16.03;;;7.90;99.90;;;;;;5053833;28;20202;-67
2021/12/17 05:39:39;;;;;;;29.20;15.97;;;8.00;99.90;;;;;;5053962;28;20298;-68
2021/12/17 05:42:07;;;;;;;32.73;16.60;;;8.00;99.90;;;;;;5053154;28;20617;-68
2021/12/17 05:44:34;;;;;;;29.17;15.67;;;8.00;99.90;;;;;;5054615;28;20214;-67
2021/12/17 05:47:01;;;;;;;30.03;15.20;;;8.00;99.90;;;;;;5052528;28;20672;-68
2021/12/17 05:49:28;;;;;;;29.50;15.73;;;7.90;99.90;;;;;;5052968;28;20206;-68
2021/12/17 05:51:55;;;;;;;30.10;16.07;;;7.90;99.90;;;;;;5052790;28;20210;-67
2021/12/17 05:54:22;;;;;;;31.43;15.60;;;7.90;99.90;;;;;;5052933;28;20225;-68
2021/12/17 05:56:51;;;;;;;29.07;15.57;;;7.90;99.90;;;;;;5052905;28;20203;-67
2021/12/17 05:59:18;;;;;;;30.10;16.07;;;7.90;99.90;;;;;;5052848;28;20555;-67
2021/12/17 06:01:45;;;;;;;31.50;15.53;;;7.90;99.90;;;;;;5052737;28;20298;-67
2021/12/17 06:04:12;;;;;;;32.37;15.47;;;7.90;99.90;;;;;;5052275;28;20198;-67
2021/12/17 06:06:45;;;;;;;30.40;15.50;;;7.80;99.90;;;;;;5053234;28;20211;-67
2021/12/17 06:09:13;;;;;;;33.17;15.20;;;7.80;99.90;;;;;;5052594;28;20242;-68
2021/12/17 06:11:40;;;;;;;32.67;16.33;;;7.80;99.90;;;;;;5052670;28;20337;-68
2021/12/17 06:14:08;;;;;;;29.20;14.57;;;7.80;99.90;;;;;;5032762;28;20230;-68
2021/12/17 06:16:35;;;;;;;29.97;14.83;;;7.90;99.90;;;;;;5032338;28;20211;-68
2021/12/17 06:19:02;;;;;;;28.20;15.37;;;7.80;99.90;;;;;;5043705;28;20578;-68
2021/12/17 06:21:29;;;;;;;29.30;14.97;;;7.80;99.90;;;;;;5051791;28;20775;-68
2021/12/17 06:23:56;;;;;;;31.20;15.67;;;7.80;99.90;;;;;;5052076;28;20556;-67
2021/12/17 06:26:23;;;;;;;41.97;17.40;;;7.80;99.90;;;;;;5052755;28;20215;-68
2021/12/17 06:28:50;;;;;;;31.77;15.13;;;7.80;99.90;;;;;;5051846;28;20203;-67
2021/12/17 06:31:20;;;;;;;28.73;15.07;;;7.80;99.90;;;;;;5051501;28;20203;-67
2021/12/17 06:33:47;;;;;;;30.33;15.50;;;7.80;99.90;;;;;;5051355;28;20219;-67
2021/12/17 06:36:14;;;;;;;34.03;16.43;;;7.80;99.90;;;;;;5052397;28;20226;-67
2021/12/17 06:38:40;;;;;;;28.90;14.50;;;7.80;99.90;;;;;;5052268;28;20573;-67
2021/12/17 06:41:07;;;;;;;28.57;14.97;;;7.80;99.90;;;;;;5052115;28;20209;-67
2021/12/17 06:43:38;;;;;;;31.20;16.20;;;7.80;99.90;;;;;;5047859;28;20637;-68
2021/12/17 06:46:18;;;;;;;30.83;15.50;;;7.80;99.90;;;;;;5052358;28;20290;-68
2021/12/17 06:48:48;;;;;;;34.20;17.20;;;7.80;99.90;;;;;;5051679;28;20648;-67
2021/12/17 06:59:53;;;;;;;30.93;16.00;;;7.90;99.90;;;;;;5048474;28;20813;-67
2021/12/17 07:10:49;;;;;;;30.83;14.93;;;7.90;99.90;;;;;;4989496;28;20208;-67
2021/12/17 07:21:54;;;;;;;31.83;15.57;;;8.00;99.90;;;;;;5051970;28;20209;-67
2021/12/17 07:24:49;;;;;;;31.20;15.30;;;7.90;99.90;;;;;;5051447;28;20649;-68
2021/12/17 07:32:52;;;;;;;30.77;14.50;;;8.00;99.90;;;;;;5051969;28;20230;-68
2021/12/17 07:35:42;;;;;;;29.57;15.33;;;8.00;99.90;;;;;;5051456;28;20714;-68
2021/12/17 07:40:56;;;;;;;27.37;14.30;;;8.00;99.90;;;;;;5051484;28;20332;-68
2021/12/17 07:43:28;;;;;;;30.73;14.67;;;8.00;99.90;;;;;;5051684;28;20203;-68
2021/12/17 07:45:55;;;;;;;28.63;13.77;;;8.00;99.90;;;;;;5050837;28;20310;-68
2021/12/17 07:48:23;;;;;;;29.67;14.80;;;8.00;99.90;;;;;;5051481;28;20566;-68
2021/12/17 07:50:50;;;;;;;27.37;13.70;;;8.00;99.90;;;;;;5055309;28;20215;-68
2021/12/17 07:53:19;;;;;;;28.10;13.90;;;8.10;99.90;;;;;;5054492;28;20223;-68
2021/12/17 07:55:46;;;;;;;26.27;12.73;;;8.00;99.90;;;;;;5055743;28;20206;-68
2021/12/17 07:58:13;;;;;;;26.83;11.93;;;8.10;99.90;;;;;;5054787;28;20211;-67
2021/12/17 08:00:40;;;;;;;26.00;12.47;;;8.10;99.90;;;;;;5055485;28;20557;-67
2021/12/17 08:03:07;;;;;;;25.33;11.90;;;8.10;99.90;;;;;;5054573;28;20203;-68
2021/12/17 08:05:34;;;;;;;24.23;11.70;;;8.20;99.90;;;;;;5055597;28;20570;-68
2021/12/17 08:08:01;;;;;;;26.70;12.03;;;8.20;99.90;;;;;;5055391;28;20214;-68
2021/12/17 08:10:31;;;;;;;22.83;11.53;;;8.20;99.90;;;;;;5055422;28;20207;-67
2021/12/17 08:12:58;;;;;;;24.03;11.03;;;8.20;99.90;;;;;;5054156;28;20231;-67
2021/12/17 08:15:31;;;;;;;24.27;10.87;;;8.20;99.90;;;;;;5054477;28;20277;-68
2021/12/17 08:18:20;;;;;;;20.63;9.60;;;8.20;99.90;;;;;;5052392;28;20207;-68
2021/12/17 08:26:28;;;;;;;21.70;11.00;;;8.20;99.90;;;;;;5039540;28;20198;-68
2021/12/17 08:29:12;;;;;;;23.03;10.73;;;8.20;99.90;;;;;;5054099;28;20202;-67
2021/12/17 08:31:39;;;;;;;21.13;10.13;;;8.20;99.90;;;;;;5053645;28;20199;-68
2021/12/17 08:34:06;;;;;;;21.13;9.57;;;8.20;99.90;;;;;;5053999;28;20227;-67
2021/12/17 08:36:33;;;;;;;22.10;9.83;;;8.10;99.90;;;;;;5054953;28;20313;-67
2021/12/17 08:39:00;;;;;;;20.00;8.93;;;8.20;99.90;;;;;;5054994;28;20203;-67
2021/12/17 08:41:29;;;;;;;20.53;9.67;;;8.20;99.90;;;;;;5054765;28;20664;-68
2021/12/17 08:43:56;;;;;;;19.30;8.80;;;8.10;99.90;;;;;;5053782;28;20276;-68
2021/12/17 08:46:23;;;;;;;23.13;9.53;;;8.10;99.90;;;;;;5054558;28;20211;-68
2021/12/17 08:48:50;;;;;;;21.30;10.50;;;8.10;99.90;;;;;;5053266;28;20187;-68
2021/12/17 08:51:17;;;;;;;19.03;8.97;;;8.10;99.90;;;;;;5054093;28;20211;-68
2021/12/17 08:53:43;;;;;;;17.73;9.17;;;8.10;99.90;;;;;;5053879;28;20231;-68
2021/12/17 08:56:13;;;;;;;15.00;7.47;;;8.10;99.90;;;;;;5053952;28;20230;-68
2021/12/17 08:58:42;;;;;;;13.97;7.23;;;8.10;99.90;;;;;;5054377;28;20238;-67
2021/12/17 09:01:08;;;;;;;15.00;7.27;;;8.20;99.90;;;;;;5053129;28;20230;-68
2021/12/17 09:03:35;;;;;;;15.13;6.37;;;8.20;99.90;;;;;;5053255;28;20195;-67
2021/12/17 09:06:03;;;;;;;13.20;6.03;;;8.20;99.90;;;;;;5054389;28;20215;-68
2021/12/17 09:08:29;;;;;;;14.23;7.03;;;8.20;99.90;;;;;;5054097;28;20217;-73
2021/12/17 09:10:57;;;;;;;15.47;7.47;;;8.20;99.90;;;;;;5052817;28;20207;-74
2021/12/17 09:13:26;;;;;;;14.30;7.03;;;8.20;99.90;;;;;;5053186;28;20575;-68
2021/12/17 09:15:56;;;;;;;15.30;7.87;;;8.20;99.90;;;;;;5054154;28;20215;-68
2021/12/17 09:18:24;;;;;;;17.50;8.87;;;8.20;99.90;;;;;;5054010;28;20199;-68
2021/12/17 09:20:51;;;;;;;16.93;8.67;;;8.10;99.90;;;;;;5053136;28;20218;-68
2021/12/17 09:23:20;;;;;;;18.47;9.47;;;8.10;99.90;;;;;;5053871;28;20675;-67
2021/12/17 09:25:47;;;;;;;16.77;8.97;;;8.10;99.90;;;;;;5053203;28;20825;-68
2021/12/17 09:28:14;;;;;;;21.13;10.17;;;8.10;99.90;;;;;;5053458;28;20321;-67
2021/12/17 09:30:41;;;;;;;18.37;9.20;;;8.10;99.90;;;;;;5053389;28;20214;-68
2021/12/17 09:33:09;;;;;;;17.43;9.10;;;8.10;99.90;;;;;;5053292;28;20206;-68
2021/12/17 09:35:36;;;;;;;16.27;8.40;;;8.10;99.90;;;;;;5053614;28;20497;-68
2021/12/17 09:38:04;;;;;;;17.83;9.07;;;8.10;99.90;;;;;;5053499;28;20761;-68
2021/12/17 09:40:31;;;;;;;17.60;8.40;;;8.10;99.90;;;;;;5052184;28;20206;-68
2021/12/17 09:42:57;;;;;;;20.80;9.37;;;8.10;99.90;;;;;;5052881;28;20214;-67
2021/12/17 09:45:24;;;;;;;19.77;10.27;;;8.10;99.90;;;;;;5053510;28;20549;-68
2021/12/17 09:47:51;;;;;;;16.77;8.80;;;8.10;99.90;;;;;;5052314;28;20210;-68
2021/12/17 09:50:21;;;;;;;16.83;8.90;;;8.10;99.90;;;;;;5052343;28;20203;-68
2021/12/17 09:52:49;;;;;;;18.73;9.37;;;8.10;99.90;;;;;;5052151;28;20211;-68
2021/12/17 09:55:16;;;;;;;17.73;8.63;;;8.10;99.90;;;;;;5053151;28;20230;-68
2021/12/17 09:57:43;;;;;;;17.77;8.50;;;8.00;99.90;;;;;;5052734;28;20205;-68
2021/12/17 10:00:15;;;;;;;20.73;9.37;;;8.00;99.90;;;;;;5033417;28;20438;-68
2021/12/17 10:02:43;;;;;;;16.87;8.83;;;8.00;99.90;;;;;;5032257;28;20210;-67
2021/12/17 10:05:14;;;;;;;15.93;8.73;;;8.00;99.90;;;;;;5038948;28;20241;-68
2021/12/17 10:07:44;;;;;;;16.63;7.93;;;8.10;99.90;;;;;;5052867;28;20203;-68
2021/12/17 10:10:12;;;;;;;16.93;8.80;;;8.00;99.90;;;;;;5053271;28;20206;-67
2021/12/17 10:12:41;;;;;;;14.70;7.20;;;8.00;99.90;;;;;;5051735;28;20246;-68
2021/12/17 10:15:10;;;;;;;14.97;8.90;;;7.90;99.90;;;;;;5052964;28;20668;-67
2021/12/17 10:17:50;;;;;;;12.43;6.80;;;7.90;99.90;;;;;;5051859;28;20589;-67
2021/12/17 10:20:17;;;;;;;12.67;7.27;;;7.90;99.90;;;;;;5052484;28;20210;-68
2021/12/17 10:22:47;;;;;;;11.97;6.27;;;7.90;99.90;;;;;;5052581;28;20205;-68
2021/12/17 10:25:14;;;;;;;9.83;5.60;;;7.90;99.90;;;;;;5051975;28;20392;-68
2021/12/17 10:27:43;;;;;;;9.63;5.70;;;7.90;99.90;;;;;;5052828;28;20199;-68
2021/12/17 10:30:13;;;;;;;11.33;6.10;;;7.90;99.90;;;;;;5052616;28;20241;-68
2021/12/17 10:32:43;;;;;;;8.17;5.17;;;7.90;99.90;;;;;;5052188;28;20199;-68
2021/12/17 10:35:12;;;;;;;9.60;5.70;;;7.90;99.90;;;;;;5052375;28;20234;-68
2021/12/17 10:37:41;;;;;;;9.10;5.37;;;7.90;99.90;;;;;;5033380;28;20206;-68
2021/12/17 10:40:23;;;;;;;9.23;5.53;;;7.80;99.90;;;;;;5051483;28;20320;-68
2021/12/17 10:43:00;;;;;;;9.53;5.70;;;7.90;99.90;;;;;;5052067;28;20214;-68
2021/12/17 10:45:31;;;;;;;9.00;4.90;;;7.90;99.90;;;;;;5052293;28;20245;-68
2021/12/17 10:51:01;;;;;;;7.57;4.13;;;7.80;99.90;;;;;;5042647;28;20248;-68
2021/12/17 10:53:28;;;;;;;6.60;4.00;;;7.80;99.90;;;;;;5051289;28;20219;-68
2021/12/17 10:55:57;;;;;;;11.50;6.67;;;7.90;99.90;;;;;;5052188;28;20566;-68
2021/12/17 10:58:24;;;;;;;9.77;6.00;;;7.90;99.90;;;;;;5051779;28;20210;-68
2021/12/17 11:00:58;;;;;;;11.70;6.70;;;8.00;99.90;;;;;;5052366;28;20559;-67
2021/12/17 11:03:26;;;;;;;11.73;6.57;;;8.00;99.90;;;;;;5051046;28;20206;-68
2021/12/17 11:05:54;;;;;;;13.37;7.13;;;7.90;99.90;;;;;;5051507;28;20252;-68
2021/12/17 11:08:28;;;;;;;20.03;9.77;;;8.00;99.90;;;;;;5051363;28;20209;-68
2021/12/17 11:11:08;;;;;;;18.97;9.83;;;7.90;99.90;;;;;;5050992;28;20210;-68
2021/12/17 11:13:35;;;;;;;21.83;10.57;;;7.90;99.90;;;;;;5049851;28;20680;-68
2021/12/17 11:16:03;;;;;;;18.73;9.50;;;7.90;99.90;;;;;;5049996;28;20645;-68
2021/12/17 11:18:30;;;;;;;18.40;9.47;;;7.80;99.90;;;;;;5052627;28;20199;-68
2021/12/17 11:20:57;;;;;;;16.90;7.93;;;7.90;99.90;;;;;;5050670;28;20597;-68
2021/12/17 11:23:24;;;;;;;14.33;7.73;;;7.90;99.90;;;;;;5050928;28;20199;-68
2021/12/17 11:25:54;;;;;;;18.17;8.27;;;7.90;99.90;;;;;;5054875;28;20286;-68
2021/12/17 11:28:23;;;;;;;13.50;7.60;;;8.00;99.90;;;;;;5055301;28;20282;-68
2021/12/17 11:30:52;;;;;;;13.57;7.87;;;8.00;99.90;;;;;;5052630;28;20199;-68
2021/12/17 11:33:19;;;;;;;12.90;7.20;;;8.00;99.90;;;;;;5054196;28;20661;-68
2021/12/17 11:35:47;;;;;;;15.50;7.63;;;8.10;99.90;;;;;;5054432;28;20222;-68
2021/12/17 11:38:17;;;;;;;9.70;4.70;;;8.00;99.90;;;;;;5055077;28;20198;-68
2021/12/17 11:40:48;;;;;;;9.33;5.30;;;8.00;99.90;;;;;;5056274;28;20680;-68
2021/12/17 11:43:52;;;;;;;9.50;5.63;;;8.10;99.90;;;;;;5054127;28;20209;-68
2021/12/17 11:46:23;;;;;;;9.83;4.97;;;8.10;99.90;;;;;;5051865;28;20206;-68
2021/12/17 11:48:52;;;;;;;8.20;4.23;;;8.10;99.90;;;;;;5054509;28;20195;-68
2021/12/17 11:51:23;;;;;;;8.97;4.50;;;8.20;99.90;;;;;;5054854;28;20217;-68
2021/12/17 11:54:02;;;;;;;6.70;4.10;;;8.20;99.90;;;;;;5052805;28;20212;-68
2021/12/17 11:56:36;;;;;;;6.87;4.03;;;8.10;99.90;;;;;;5053560;28;20206;-68
2021/12/17 11:59:04;;;;;;;7.77;4.10;;;8.10;99.90;;;;;;5050830;28;20294;-69
2021/12/17 12:02:11;;;;;;;7.97;4.70;;;8.20;99.90;;;;;;5050080;28;20210;-68
2021/12/17 12:04:57;;;;;;;6.80;3.70;;;8.20;99.90;;;;;;5052656;28;20206;-68
2021/12/17 12:07:38;;;;;;;5.93;3.80;;;8.20;99.90;;;;;;5057881;28;20203;-68
2021/12/17 12:10:24;;;;;;;6.50;4.13;;;8.20;99.90;;;;;;5053136;28;20205;-68
2021/12/17 12:13:01;;;;;;;8.83;4.40;;;8.20;99.90;;;;;;5054731;28;20579;-68
2021/12/17 12:15:35;;;;;;;7.43;4.30;;;8.10;99.90;;;;;;5048313;28;20265;-68
2021/12/17 12:18:22;;;;;;;6.77;4.47;;;8.10;99.90;;;;;;5051781;28;20283;-68
2021/12/17 12:21:02;;;;;;;9.67;5.70;;;8.10;99.90;;;;;;5047199;28;20589;-68
2021/12/17 12:23:56;;;;;;;7.60;4.73;;;8.10;99.90;;;;;;5049213;28;20209;-68
2021/12/17 12:26:33;;;;;;;8.67;5.47;;;8.10;99.90;;;;;;5058069;28;20656;-68
2021/12/17 12:29:05;;;;;;;12.23;6.80;;;8.20;99.90;;;;;;5046784;28;20205;-68
2021/12/17 12:32:02;;;;;;;14.23;7.17;;;8.30;99.90;;;;;;5052214;28;20203;-68
2021/12/17 12:34:32;;;;;;;15.13;7.27;;;8.20;99.90;;;;;;5052412;28;20222;-68
2021/12/17 12:37:03;;;;;;;11.87;6.97;;;8.30;99.90;;;;;;5051644;28;20247;-68
2021/12/17 12:39:33;;;;;;;11.20;7.20;;;8.30;99.90;;;;;;5050867;28;20568;-68
2021/12/17 12:42:04;;;;;;;15.27;7.63;;;8.30;99.90;;;;;;5052763;28;20198;-68
2021/12/17 12:45:06;;;;;;;13.00;8.40;;;8.30;99.90;;;;;;5052151;28;20543;-68
2021/12/17 12:47:47;;;;;;;11.37;6.10;;;8.30;99.90;;;;;;5052147;28;20583;-68
2021/12/17 12:50:17;;;;;;;12.33;6.57;;;8.30;99.90;;;;;;5046545;28;20211;-68
2021/12/17 12:52:46;;;;;;;12.30;6.23;;;8.30;99.90;;;;;;5005153;28;1384774;-68
2021/12/17 12:55:17;;;;;;;15.00;7.27;;;8.30;99.90;;;;;;5054404;28;20222;-68
2021/12/17 12:57:46;;;;;;;15.63;7.27;;;8.20;99.90;;;;;;5054042;28;20202;-68
2021/12/17 13:00:17;;;;;;;14.17;7.67;;;8.30;99.90;;;;;;5054752;28;20210;-68
2021/12/17 13:02:48;;;;;;;13.57;7.40;;;8.30;99.90;;;;;;5054560;28;20549;-68
2021/12/17 13:05:15;;;;;;;11.10;6.00;;;8.40;99.90;;;;;;5054579;28;20199;-68
2021/12/17 13:07:44;;;;;;;12.50;6.30;;;8.40;99.90;;;;;;5054104;28;20206;-68
2021/12/17 13:10:14;;;;;;;13.43;6.30;;;8.40;99.90;;;;;;5054287;28;20209;-68
2021/12/17 13:12:42;;;;;;;11.53;5.97;;;8.40;99.90;;;;;;5051430;28;20199;-68
2021/12/17 13:15:19;;;;;;;14.17;7.10;;;8.30;99.90;;;;;;5049681;28;20685;-68
2021/12/17 13:21:03;;;;;;;13.87;6.87;;;8.40;99.90;;;;;;5048689;28;20284;-68
2021/12/17 13:23:33;;;;;;;13.47;6.97;;;8.40;99.90;;;;;;5050089;28;20242;-68
2021/12/17 13:26:05;;;;;;;12.23;6.67;;;8.40;99.90;;;;;;5048444;28;20570;-68
2021/12/17 13:28:54;;;;;;;15.17;6.87;;;8.40;99.90;;;;;;5052582;28;20215;-69
2021/12/17 13:31:41;;;;;;;11.07;5.97;;;8.40;99.90;;;;;;5052170;28;20225;-68
2021/12/17 13:34:14;;;;;;;13.37;6.87;;;8.40;99.90;;;;;;5046152;28;20248;-68
2021/12/17 13:37:05;;;;;;;14.13;6.87;;;8.40;99.90;;;;;;5050033;28;20494;-68
2021/12/17 13:39:35;;;;;;;12.47;6.77;;;8.40;99.90;;;;;;5046605;28;20684;-69
2021/12/17 13:42:02;;;;;;;11.37;6.70;;;8.40;99.90;;;;;;5048873;28;20204;-68
2021/12/17 13:44:33;;;;;;;15.27;7.73;;;8.40;99.90;;;;;;5049220;28;20203;-68
2021/12/17 13:47:24;;;;;;;13.00;7.27;;;8.40;99.90;;;;;;5051016;28;20661;-68
2021/12/17 13:49:57;;;;;;;15.43;8.53;;;8.40;99.90;;;;;;5051848;28;20202;-68
2021/12/17 13:52:26;;;;;;;17.17;8.80;;;8.40;99.90;;;;;;5047976;28;20207;-68
2021/12/17 13:54:54;;;;;;;14.13;7.87;;;8.40;99.90;;;;;;5051849;28;20218;-68
2021/12/17 13:57:25;;;;;;;17.33;8.77;;;8.40;99.90;;;;;;5046733;28;20203;-68
2021/12/17 13:59:52;;;;;;;16.77;9.17;;;8.40;99.90;;;;;;5052236;28;20290;-68
2021/12/17 14:02:21;;;;;;;14.80;8.13;;;8.40;99.90;;;;;;5051172;28;20637;-68
2021/12/17 14:05:06;;;;;;;14.67;7.43;;;8.40;99.90;;;;;;5049136;28;20203;-68
2021/12/17 14:07:34;;;;;;;16.60;8.53;;;8.40;99.90;;;;;;5049380;28;20207;-68
2021/12/17 14:10:04;;;;;;;13.73;8.33;;;8.40;99.90;;;;;;5051721;28;20205;-68
2021/12/17 14:12:36;;;;;;;14.10;8.73;;;8.40;99.90;;;;;;5051589;28;20253;-68
2021/12/17 14:15:06;;;;;;;13.23;7.80;;;8.40;99.90;;;;;;5044491;28;20223;-68
2021/12/17 14:17:35;;;;;;;16.23;9.47;;;8.40;99.90;;;;;;5052084;28;20724;-68
2021/12/17 14:20:07;;;;;;;16.50;9.23;;;8.30;99.90;;;;;;5051763;28;20214;-68
2021/12/17 14:22:35;;;;;;;14.73;8.63;;;8.40;99.90;;;;;;5050433;28;20552;-68
2021/12/17 14:25:24;;;;;;;16.73;9.30;;;8.40;99.90;;;;;;5049437;28;20579;-68
2021/12/17 14:27:51;;;;;;;14.73;8.30;;;8.40;99.90;;;;;;5047925;28;20204;-68
2021/12/17 14:30:23;;;;;;;16.73;7.93;;;8.40;99.90;;;;;;5049558;28;20207;-69
2021/12/17 14:32:51;;;;;;;17.50;9.07;;;8.40;99.90;;;;;;5050822;28;20290;-68
2021/12/17 14:35:40;;;;;;;19.37;10.67;;;8.30;99.90;;;;;;5050264;28;20586;-68
2021/12/17 14:38:07;;;;;;;18.00;9.40;;;8.30;99.90;;;;;;5047409;28;20235;-68
2021/12/17 14:40:41;;;;;;;17.77;9.33;;;8.30;99.90;;;;;;5048731;28;20559;-68
2021/12/17 14:43:20;;;;;;;17.17;9.57;;;8.30;99.90;;;;;;5049986;28;20211;-68
2021/12/17 14:45:54;;;;;;;18.03;9.27;;;8.30;99.90;;;;;;5047651;28;20195;-68
2021/12/17 14:48:31;;;;;;;15.70;8.53;;;8.30;99.90;;;;;;5046024;28;20245;-69
2021/12/17 15:04:50;;;;;;;21.23;11.33;;;8.30;99.90;;;;;;5049548;28;20276;-68
2021/12/17 15:07:20;;;;;;;15.27;9.10;;;8.30;99.90;;;;;;5050805;28;20214;-68
2021/12/17 15:09:47;;;;;;;16.67;9.53;;;8.20;99.90;;;;;;5051201;28;20241;-67
2021/12/17 15:12:36;;;;;;;16.00;9.33;;;8.30;99.90;;;;;;5047264;28;20207;-67
2021/12/17 15:15:06;;;;;;;16.27;8.60;;;8.20;99.90;;;;;;5050150;28;20234;-68
2021/12/17 15:17:33;;;;;;;15.70;8.63;;;8.20;99.90;;;;;;5050705;28;20195;-67
2021/12/17 15:20:00;;;;;;;16.30;8.83;;;8.20;99.90;;;;;;5045598;28;20210;-67
2021/12/17 15:22:28;;;;;;;15.47;8.23;;;8.20;99.90;;;;;;5050124;28;20218;-68
2021/12/17 15:24:55;;;;;;;15.70;9.27;;;8.10;99.90;;;;;;5046832;28;20294;-67
2021/12/17 15:27:23;;;;;;;15.37;9.00;;;8.10;99.90;;;;;;5051434;28;20649;-67
2021/12/17 15:29:50;;;;;;;19.10;9.10;;;8.10;99.90;;;;;;5050629;28;20203;-67
2021/12/17 15:32:17;;;;;;;17.63;9.30;;;8.10;99.90;;;;;;5044488;28;20491;-67
2021/12/17 15:34:44;;;;;;;15.87;9.10;;;8.10;99.90;;;;;;5049114;28;20661;-67
2021/12/17 15:37:11;;;;;;;17.37;9.00;;;8.10;99.90;;;;;;5048242;28;20209;-67
2021/12/17 15:39:39;;;;;;;18.50;9.23;;;8.10;99.90;;;;;;5050189;28;20211;-68
2021/12/17 15:42:07;;;;;;;18.43;10.67;;;8.00;99.90;;;;;;5043822;28;20684;-68
2021/12/17 15:44:33;;;;;;;19.07;11.00;;;8.00;99.90;;;;;;5049069;28;20203;-68
2021/12/17 15:47:00;;;;;;;20.17;11.40;;;8.00;99.90;;;;;;5045206;28;20562;-67